Southbridge, Virginia
Current Conditions -  °F | °C
As of 12:56 PM on Tuesday 21 Oct 2014 (Local Time) from KNYG Reporting Station
Scattered Clouds Scattered Clouds  
Wind Chill: 65°   Ceiling: Unl
Heat Index: 65°   Visibility: 10mi
Dew Point: 53°   Wind: 3mph
Humidity: 65%   Direction: 130°SE
Pressure: 29.85"   Gusts: NA
Location:  38.5728°N, 77.3038°W
Report Text: KNYG 211656Z 13003KT 10SM FEW040 SCT100 18/12 A2985 RMK AO2 SLP109 T01830117 $
Loading
Personal Weather Stations






























Interactive Weather Map
Tropical Storm Tracking
New forecast layout! Learn more

10-Day Weather Forecast

Advertisements
Track Severe Weather on mobile